메인 페이지
METAR-TAF:

METAR-TAF

공항 :

웰링턴 국제공항

웰링턴, 뉴질랜드

위도: 41-20S, 경도: 174-48E, 고도: 12m

현재 날씨관측

예보는 36분 전, 04:30시(UTC)에 발표되었습니다.
20kt
온도 19°C
습도 73%
기압 1022 hPa
시정 10km 이상

METAR: NZWN 150430Z AUTO 01020KT 9999 NCD 19/14 Q1022 NOSIG

시각: 18:06 (05:06 UTC)

예보

예보는 6 시간 2분 전, 23:04시(UTC)에 발표되었습니다.
예보 대상 시간: 15일 00시부터 16일 00시까지 (UTC)
15kt, 순간 최대 풍속 25kt
시정 10km 이상
고도 2000ft 상공 구름 조금
전환 중
15일 01시부터 15일 03시까지 (UTC)
20kt, 순간 최대 풍속 35kt
15일 0900시부터 (UTC)
15kt, 순간 최대 풍속 25kt
시정 10km 이상
고도 1400ft 상공 구름 보통
확률 30%
15일 13시부터 15일 21시까지 (UTC)
고도 1400ft 상공 구름 많음
전환 중
15일 21시부터 15일 23시까지 (UTC)
20kt, 순간 최대 풍속 35kt

TAF: NZWN 142304Z 1500/1600 36015G25KT 9999 FEW020 BECMG 1501/1503 36020G35KT FM150900 36015G25KT 9999 SCT014 PROB30 1513/1521 BKN014 BECMG 1521/1523 36020G35KT

4,000개 이상의 공항 관측 자료 및 예보 (METAR 및 TAF 보고).

지도상에서 검색 가능한 기상관측소가 노란 점과 빨간 점으로 표시되어 있습니다.

기상관측소 명을 보려면 표시 위로 마우스를 이동하세요.

날씨 관측과 예보를 보려면 클릭하세요.

지도 변경 : 확대하려면 엑스 표시가 있는 녹색 버튼, 축소하려면 빼기 표시가 있는 녹색 버튼, 다음 페이지의 지도를 보려면 녹색 화살표를 클릭하세요.


METAR-TAF: